sensor_id;sensor_type;location;lat;lon;timestamp;pressure;altitude;pressure_sealevel;temperature;humidity
76374;BME280;65197;50.164;8.012;2023-03-14T00:01:54;93615.75;;;6.92;100.00
76374;BME280;65197;50.164;8.012;2023-03-14T00:04:20;93620.44;;;6.85;100.00
76374;BME280;65197;50.164;8.012;2023-03-14T00:06:45;93601.78;;;6.86;100.00
76374;BME280;65197;50.164;8.012;2023-03-14T00:09:12;93609.50;;;6.85;100.00
76374;BME280;65197;50.164;8.012;2023-03-14T00:11:37;93619.22;;;6.91;100.00
76374;BME280;65197;50.164;8.012;2023-03-14T00:14:03;93619.81;;;6.82;100.00
76374;BME280;65197;50.164;8.012;2023-03-14T00:16:28;93617.97;;;6.84;100.00
76374;BME280;65197;50.164;8.012;2023-03-14T00:18:54;93602.56;;;6.74;100.00
76374;BME280;65197;50.164;8.012;2023-03-14T00:21:19;93622.00;;;6.74;100.00
76374;BME280;65197;50.164;8.012;2023-03-14T00:23:44;93612.91;;;6.71;100.00
76374;BME280;65197;50.164;8.012;2023-03-14T00:26:12;93613.91;;;6.69;100.00
76374;BME280;65197;50.164;8.012;2023-03-14T00:28:38;93605.31;;;6.71;100.00
76374;BME280;65197;50.164;8.012;2023-03-14T00:31:06;93597.88;;;6.68;100.00
76374;BME280;65197;50.164;8.012;2023-03-14T00:33:32;93597.09;;;6.68;100.00
76374;BME280;65197;50.164;8.012;2023-03-14T00:35:59;93585.53;;;6.63;100.00
76374;BME280;65197;50.164;8.012;2023-03-14T00:38:26;93556.13;;;6.48;100.00
76374;BME280;65197;50.164;8.012;2023-03-14T00:40:52;93567.28;;;6.58;100.00
76374;BME280;65197;50.164;8.012;2023-03-14T00:43:18;93557.03;;;6.60;100.00
76374;BME280;65197;50.164;8.012;2023-03-14T00:45:46;93562.22;;;6.58;100.00
76374;BME280;65197;50.164;8.012;2023-03-14T00:48:12;93566.66;;;6.55;100.00
76374;BME280;65197;50.164;8.012;2023-03-14T00:50:38;93534.44;;;6.44;100.00
76374;BME280;65197;50.164;8.012;2023-03-14T00:53:03;93532.59;;;6.33;100.00
76374;BME280;65197;50.164;8.012;2023-03-14T00:55:29;93558.50;;;6.37;100.00
76374;BME280;65197;50.164;8.012;2023-03-14T00:57:54;93552.66;;;6.36;100.00
76374;BME280;65197;50.164;8.012;2023-03-14T01:00:21;93547.34;;;6.27;100.00
76374;BME280;65197;50.164;8.012;2023-03-14T01:02:47;93561.44;;;6.31;100.00
76374;BME280;65197;50.164;8.012;2023-03-14T01:05:12;93552.41;;;6.27;100.00
76374;BME280;65197;50.164;8.012;2023-03-14T01:07:37;93567.22;;;6.33;100.00
76374;BME280;65197;50.164;8.012;2023-03-14T01:10:04;93550.63;;;6.29;100.00
76374;BME280;65197;50.164;8.012;2023-03-14T01:12:30;93534.88;;;6.24;100.00
76374;BME280;65197;50.164;8.012;2023-03-14T01:14:55;93552.41;;;6.27;100.00
76374;BME280;65197;50.164;8.012;2023-03-14T01:17:21;93526.78;;;6.19;100.00
76374;BME280;65197;50.164;8.012;2023-03-14T01:19:47;93548.91;;;6.29;100.00
76374;BME280;65197;50.164;8.012;2023-03-14T01:22:12;93530.72;;;6.23;100.00
76374;BME280;65197;50.164;8.012;2023-03-14T01:24:38;93532.16;;;6.27;100.00
76374;BME280;65197;50.164;8.012;2023-03-14T01:27:03;93536.13;;;6.31;100.00
76374;BME280;65197;50.164;8.012;2023-03-14T01:29:29;93524.56;;;6.27;100.00
76374;BME280;65197;50.164;8.012;2023-03-14T01:31:54;93531.97;;;6.30;100.00
76374;BME280;65197;50.164;8.012;2023-03-14T01:34:20;93526.13;;;6.29;100.00
76374;BME280;65197;50.164;8.012;2023-03-14T01:36:45;93518.59;;;6.28;100.00
76374;BME280;65197;50.164;8.012;2023-03-14T01:39:10;93511.91;;;6.27;100.00
76374;BME280;65197;50.164;8.012;2023-03-14T01:41:36;93502.91;;;6.23;100.00
76374;BME280;65197;50.164;8.012;2023-03-14T01:44:01;93501.38;;;6.20;100.00
76374;BME280;65197;50.164;8.012;2023-03-14T01:46:42;93507.59;;;6.29;100.00
76374;BME280;65197;50.164;8.012;2023-03-14T01:49:27;93504.22;;;6.28;100.00
76374;BME280;65197;50.164;8.012;2023-03-14T01:52:16;93508.69;;;6.25;100.00
76374;BME280;65197;50.164;8.012;2023-03-14T01:54:55;93494.09;;;6.16;100.00
76374;BME280;65197;50.164;8.012;2023-03-14T01:57:23;93493.50;;;6.25;100.00
76374;BME280;65197;50.164;8.012;2023-03-14T02:00:05;93490.47;;;6.20;100.00
76374;BME280;65197;50.164;8.012;2023-03-14T02:02:44;93478.69;;;6.19;100.00
76374;BME280;65197;50.164;8.012;2023-03-14T02:05:12;93462.28;;;6.11;100.00
76374;BME280;65197;50.164;8.012;2023-03-14T02:07:48;93458.66;;;6.16;100.00
76374;BME280;65197;50.164;8.012;2023-03-14T02:10:16;93449.81;;;6.08;100.00
76374;BME280;65197;50.164;8.012;2023-03-14T02:12:45;93452.34;;;6.08;100.00
76374;BME280;65197;50.164;8.012;2023-03-14T02:15:10;93439.81;;;6.07;100.00
76374;BME280;65197;50.164;8.012;2023-03-14T02:17:36;93448.63;;;6.14;100.00
76374;BME280;65197;50.164;8.012;2023-03-14T02:20:35;93459.53;;;6.15;100.00
76374;BME280;65197;50.164;8.012;2023-03-14T02:22:59;93435.56;;;6.07;100.00
76374;BME280;65197;50.164;8.012;2023-03-14T02:28:15;93437.91;;;6.10;100.00
76374;BME280;65197;50.164;8.012;2023-03-14T02:34:03;93454.19;;;6.06;100.00
76374;BME280;65197;50.164;8.012;2023-03-14T02:36:29;93446.69;;;6.05;100.00
76374;BME280;65197;50.164;8.012;2023-03-14T02:39:07;93449.13;;;6.06;100.00
76374;BME280;65197;50.164;8.012;2023-03-14T02:41:36;93453.97;;;6.09;100.00
76374;BME280;65197;50.164;8.012;2023-03-14T02:44:02;93446.78;;;6.03;100.00
76374;BME280;65197;50.164;8.012;2023-03-14T02:46:27;93465.13;;;6.07;100.00
76374;BME280;65197;50.164;8.012;2023-03-14T02:48:56;93470.38;;;6.04;100.00
76374;BME280;65197;50.164;8.012;2023-03-14T02:51:23;93464.69;;;6.00;100.00
76374;BME280;65197;50.164;8.012;2023-03-14T02:53:49;93460.53;;;5.99;100.00
76374;BME280;65197;50.164;8.012;2023-03-14T02:56:14;93458.72;;;6.01;100.00
76374;BME280;65197;50.164;8.012;2023-03-14T02:58:40;93470.47;;;6.02;100.00
76374;BME280;65197;50.164;8.012;2023-03-14T03:01:05;93462.88;;;6.02;100.00
76374;BME280;65197;50.164;8.012;2023-03-14T03:03:31;93475.31;;;6.05;100.00
76374;BME280;65197;50.164;8.012;2023-03-14T03:05:57;93476.03;;;6.07;100.00
76374;BME280;65197;50.164;8.012;2023-03-14T03:08:25;93463.78;;;6.01;100.00
76374;BME280;65197;50.164;8.012;2023-03-14T03:10:51;93474.09;;;5.98;100.00
76374;BME280;65197;50.164;8.012;2023-03-14T03:13:17;93479.06;;;6.00;100.00
76374;BME280;65197;50.164;8.012;2023-03-14T03:15:43;93460.94;;;5.93;100.00
76374;BME280;65197;50.164;8.012;2023-03-14T03:18:08;93467.13;;;6.15;100.00
76374;BME280;65197;50.164;8.012;2023-03-14T03:20:34;93456.50;;;6.09;100.00
76374;BME280;65197;50.164;8.012;2023-03-14T03:23:00;93452.34;;;6.08;100.00
76374;BME280;65197;50.164;8.012;2023-03-14T03:25:26;93448.53;;;6.16;100.00
76374;BME280;65197;50.164;8.012;2023-03-14T03:27:52;93442.84;;;6.12;100.00
76374;BME280;65197;50.164;8.012;2023-03-14T03:30:17;93452.19;;;6.24;100.00
76374;BME280;65197;50.164;8.012;2023-03-14T03:32:43;93436.78;;;6.15;100.00
76374;BME280;65197;50.164;8.012;2023-03-14T03:35:09;93431.53;;;6.18;100.00
76374;BME280;65197;50.164;8.012;2023-03-14T03:37:35;93439.84;;;6.20;100.00
76374;BME280;65197;50.164;8.012;2023-03-14T03:40:00;93431.72;;;6.15;100.00
76374;BME280;65197;50.164;8.012;2023-03-14T03:42:27;93416.53;;;6.15;100.00
76374;BME280;65197;50.164;8.012;2023-03-14T03:44:52;93415.72;;;6.14;100.00
76374;BME280;65197;50.164;8.012;2023-03-14T03:47:17;93408.44;;;6.09;100.00
76374;BME280;65197;50.164;8.012;2023-03-14T03:49:43;93405.00;;;6.10;100.00
76374;BME280;65197;50.164;8.012;2023-03-14T03:52:08;93404.78;;;6.13;100.00
76374;BME280;65197;50.164;8.012;2023-03-14T03:54:34;93389.00;;;6.10;100.00
76374;BME280;65197;50.164;8.012;2023-03-14T03:57:00;93387.50;;;6.07;100.00
76374;BME280;65197;50.164;8.012;2023-03-14T03:59:25;93387.81;;;6.16;100.00
76374;BME280;65197;50.164;8.012;2023-03-14T04:01:50;93373.91;;;6.08;100.00
76374;BME280;65197;50.164;8.012;2023-03-14T04:04:16;93381.41;;;6.10;100.00
76374;BME280;65197;50.164;8.012;2023-03-14T04:06:41;93384.34;;;6.17;100.00
76374;BME280;65197;50.164;8.012;2023-03-14T04:09:08;93378.50;;;6.16;100.00
76374;BME280;65197;50.164;8.012;2023-03-14T04:11:33;93348.13;;;6.03;100.00
76374;BME280;65197;50.164;8.012;2023-03-14T04:13:59;93316.56;;;5.96;100.00
76374;BME280;65197;50.164;8.012;2023-03-14T04:16:25;93360.66;;;6.18;100.00
76374;BME280;65197;50.164;8.012;2023-03-14T04:18:51;93348.50;;;6.10;100.00
76374;BME280;65197;50.164;8.012;2023-03-14T04:21:16;93352.69;;;6.11;100.00
76374;BME280;65197;50.164;8.012;2023-03-14T04:23:42;93350.03;;;6.12;100.00
76374;BME280;65197;50.164;8.012;2023-03-14T04:26:07;93349.13;;;6.13;100.00
76374;BME280;65197;50.164;8.012;2023-03-14T04:28:33;93343.38;;;6.11;100.00
76374;BME280;65197;50.164;8.012;2023-03-14T04:31:07;93342.25;;;6.16;100.00
76374;BME280;65197;50.164;8.012;2023-03-14T04:33:32;93344.88;;;6.14;100.00
76374;BME280;65197;50.164;8.012;2023-03-14T04:35:58;93325.16;;;6.06;100.00
76374;BME280;65197;50.164;8.012;2023-03-14T04:38:23;93333.75;;;6.17;100.00
76374;BME280;65197;50.164;8.012;2023-03-14T04:40:48;93342.66;;;6.22;100.00
76374;BME280;65197;50.164;8.012;2023-03-14T04:43:14;93330.09;;;6.21;100.00
76374;BME280;65197;50.164;8.012;2023-03-14T04:45:42;93331.53;;;6.25;100.00
76374;BME280;65197;50.164;8.012;2023-03-14T04:48:08;93328.06;;;6.26;100.00
76374;BME280;65197;50.164;8.012;2023-03-14T04:50:33;93319.75;;;6.24;100.00
76374;BME280;65197;50.164;8.012;2023-03-14T04:52:59;93316.72;;;6.19;100.00
76374;BME280;65197;50.164;8.012;2023-03-14T04:55:24;93328.88;;;6.13;100.00
76374;BME280;65197;50.164;8.012;2023-03-14T04:57:49;93333.44;;;6.21;100.00
76374;BME280;65197;50.164;8.012;2023-03-14T05:00:15;93326.34;;;6.26;100.00
76374;BME280;65197;50.164;8.012;2023-03-14T05:02:43;93332.22;;;6.27;100.00
76374;BME280;65197;50.164;8.012;2023-03-14T05:05:09;93318.06;;;6.11;100.00
76374;BME280;65197;50.164;8.012;2023-03-14T05:07:34;93345.38;;;6.19;100.00
76374;BME280;65197;50.164;8.012;2023-03-14T05:09:59;93343.38;;;6.11;100.00
76374;BME280;65197;50.164;8.012;2023-03-14T05:12:25;93340.84;;;6.11;100.00
76374;BME280;65197;50.164;8.012;2023-03-14T05:14:50;93335.97;;;6.08;100.00
76374;BME280;65197;50.164;8.012;2023-03-14T05:17:15;93337.88;;;6.05;100.00
76374;BME280;65197;50.164;8.012;2023-03-14T05:19:41;93335.56;;;6.02;100.00
76374;BME280;65197;50.164;8.012;2023-03-14T05:22:07;93349.44;;;6.09;100.00
76374;BME280;65197;50.164;8.012;2023-03-14T05:24:33;93329.72;;;6.01;100.00
76374;BME280;65197;50.164;8.012;2023-03-14T05:26:58;93342.34;;;6.01;100.00
76374;BME280;65197;50.164;8.012;2023-03-14T05:29:23;93352.06;;;6.07;100.00
76374;BME280;65197;50.164;8.012;2023-03-14T05:31:49;93343.66;;;6.07;100.00
76374;BME280;65197;50.164;8.012;2023-03-14T05:34:14;93331.31;;;6.02;100.00
76374;BME280;65197;50.164;8.012;2023-03-14T05:36:40;93333.53;;;5.94;100.00
76374;BME280;65197;50.164;8.012;2023-03-14T05:39:05;93334.09;;;5.85;100.00
76374;BME280;65197;50.164;8.012;2023-03-14T05:41:30;93316.69;;;5.68;100.00
76374;BME280;65197;50.164;8.012;2023-03-14T05:43:56;93314.03;;;5.56;100.00
76374;BME280;65197;50.164;8.012;2023-03-14T05:46:21;93331.41;;;5.48;100.00
76374;BME280;65197;50.164;8.012;2023-03-14T05:48:46;93323.50;;;5.40;100.00
76374;BME280;65197;50.164;8.012;2023-03-14T05:51:12;93323.91;;;5.34;100.00
76374;BME280;65197;50.164;8.012;2023-03-14T05:53:37;93329.13;;;5.31;100.00
76374;BME280;65197;50.164;8.012;2023-03-14T05:56:03;93296.00;;;5.23;100.00
76374;BME280;65197;50.164;8.012;2023-03-14T05:58:28;93301.81;;;5.10;100.00
76374;BME280;65197;50.164;8.012;2023-03-14T06:00:53;93311.44;;;5.18;100.00
76374;BME280;65197;50.164;8.012;2023-03-14T06:03:19;93306.69;;;5.14;100.00
76374;BME280;65197;50.164;8.012;2023-03-14T06:05:44;93307.38;;;5.16;100.00
76374;BME280;65197;50.164;8.012;2023-03-14T06:08:10;93300.19;;;5.09;100.00
76374;BME280;65197;50.164;8.012;2023-03-14T06:10:36;93291.88;;;5.07;100.00
76374;BME280;65197;50.164;8.012;2023-03-14T06:13:02;93266.59;;;4.95;100.00
76374;BME280;65197;50.164;8.012;2023-03-14T06:15:27;93305.59;;;5.18;100.00
76374;BME280;65197;50.164;8.012;2023-03-14T06:17:56;93314.78;;;5.19;100.00
76374;BME280;65197;50.164;8.012;2023-03-14T06:20:21;93305.19;;;5.24;100.00
76374;BME280;65197;50.164;8.012;2023-03-14T06:22:47;93314.38;;;5.25;100.00
76374;BME280;65197;50.164;8.012;2023-03-14T06:25:12;93291.31;;;5.17;100.00
76374;BME280;65197;50.164;8.012;2023-03-14T06:27:38;93310.13;;;5.25;100.00
76374;BME280;65197;50.164;8.012;2023-03-14T06:30:03;93306.63;;;5.28;100.00
76374;BME280;65197;50.164;8.012;2023-03-14T06:32:29;93316.22;;;5.35;100.00
76374;BME280;65197;50.164;8.012;2023-03-14T06:34:54;93301.16;;;5.34;100.00
76374;BME280;65197;50.164;8.012;2023-03-14T06:37:23;93311.78;;;5.39;100.00
76374;BME280;65197;50.164;8.012;2023-03-14T06:39:48;93305.13;;;5.38;100.00
76374;BME280;65197;50.164;8.012;2023-03-14T06:42:14;93301.50;;;5.42;100.00
76374;BME280;65197;50.164;8.012;2023-03-14T06:44:39;93302.19;;;5.44;100.00
76374;BME280;65197;50.164;8.012;2023-03-14T06:47:04;93309.59;;;5.47;100.00
76374;BME280;65197;50.164;8.012;2023-03-14T06:49:30;93307.75;;;5.49;100.00
76374;BME280;65197;50.164;8.012;2023-03-14T06:51:55;93304.13;;;5.53;100.00
76374;BME280;65197;50.164;8.012;2023-03-14T06:54:21;93297.06;;;5.58;100.00
76374;BME280;65197;50.164;8.012;2023-03-14T06:56:46;93309.81;;;5.70;100.00
76374;BME280;65197;50.164;8.012;2023-03-14T06:59:12;93313.03;;;5.72;100.00
76374;BME280;65197;50.164;8.012;2023-03-14T07:01:37;93292.31;;;5.67;100.00
76374;BME280;65197;50.164;8.012;2023-03-14T07:04:03;93283.13;;;5.66;100.00
76374;BME280;65197;50.164;8.012;2023-03-14T07:06:28;93285.75;;;5.77;100.00
76374;BME280;65197;50.164;8.012;2023-03-14T07:08:54;93299.91;;;5.79;100.00
76374;BME280;65197;50.164;8.012;2023-03-14T07:11:20;93283.72;;;5.82;100.00
76374;BME280;65197;50.164;8.012;2023-03-14T07:13:45;93297.09;;;5.84;100.00
76374;BME280;65197;50.164;8.012;2023-03-14T07:16:11;93297.91;;;5.84;100.00
76374;BME280;65197;50.164;8.012;2023-03-14T07:18:36;93293.13;;;5.80;100.00
76374;BME280;65197;50.164;8.012;2023-03-14T07:21:02;93290.50;;;5.81;100.00
76374;BME280;65197;50.164;8.012;2023-03-14T07:23:28;93297.28;;;5.81;100.00
76374;BME280;65197;50.164;8.012;2023-03-14T07:25:54;93295.66;;;5.80;100.00
76374;BME280;65197;50.164;8.012;2023-03-14T07:28:20;93289.84;;;5.92;100.00
76374;BME280;65197;50.164;8.012;2023-03-14T07:30:48;93302.25;;;5.95;100.00
76374;BME280;65197;50.164;8.012;2023-03-14T07:33:13;93322.00;;;6.03;100.00
76374;BME280;65197;50.164;8.012;2023-03-14T07:35:39;93300.75;;;6.05;100.00
76374;BME280;65197;50.164;8.012;2023-03-14T07:38:04;93284.06;;;6.03;100.00
76374;BME280;65197;50.164;8.012;2023-03-14T07:40:30;93308.03;;;6.10;100.00
76374;BME280;65197;50.164;8.012;2023-03-14T07:42:55;93293.47;;;6.13;100.00
76374;BME280;65197;50.164;8.012;2023-03-14T07:45:21;93304.56;;;6.24;100.00
76374;BME280;65197;50.164;8.012;2023-03-14T07:47:46;93291.81;;;6.38;100.00
76374;BME280;65197;50.164;8.012;2023-03-14T07:50:11;93299.28;;;6.52;100.00
76374;BME280;65197;50.164;8.012;2023-03-14T07:52:37;93307.56;;;6.67;100.00
76374;BME280;65197;50.164;8.012;2023-03-14T07:55:02;93298.22;;;6.68;100.00
76374;BME280;65197;50.164;8.012;2023-03-14T07:57:28;93300.81;;;6.79;100.00
76374;BME280;65197;50.164;8.012;2023-03-14T07:59:53;93305.31;;;6.99;100.00
76374;BME280;65197;50.164;8.012;2023-03-14T08:02:18;93311.47;;;7.08;100.00
76374;BME280;65197;50.164;8.012;2023-03-14T08:04:47;93309.59;;;7.23;100.00
76374;BME280;65197;50.164;8.012;2023-03-14T08:07:12;93300.09;;;7.13;100.00
76374;BME280;65197;50.164;8.012;2023-03-14T08:09:39;93318.38;;;7.06;100.00
76374;BME280;65197;50.164;8.012;2023-03-14T08:12:05;93305.16;;;7.13;100.00
76374;BME280;65197;50.164;8.012;2023-03-14T08:14:30;93298.97;;;7.18;100.00
76374;BME280;65197;50.164;8.012;2023-03-14T08:16:56;93304.72;;;7.20;100.00
76374;BME280;65197;50.164;8.012;2023-03-14T08:19:21;93294.09;;;7.14;100.00
76374;BME280;65197;50.164;8.012;2023-03-14T08:21:47;93294.38;;;7.23;100.00
76374;BME280;65197;50.164;8.012;2023-03-14T08:24:12;93300.25;;;7.23;100.00
76374;BME280;65197;50.164;8.012;2023-03-14T08:26:38;93303.22;;;7.17;100.00
76374;BME280;65197;50.164;8.012;2023-03-14T08:29:03;93301.03;;;7.12;100.00
76374;BME280;65197;50.164;8.012;2023-03-14T08:31:30;93311.53;;;6.95;100.00
76374;BME280;65197;50.164;8.012;2023-03-14T08:33:58;93305.72;;;6.93;100.00
76374;BME280;65197;50.164;8.012;2023-03-14T08:36:23;93318.09;;;6.98;100.00
76374;BME280;65197;50.164;8.012;2023-03-14T08:38:49;93315.66;;;6.96;100.00
76374;BME280;65197;50.164;8.012;2023-03-14T08:41:14;93329.16;;;6.84;100.00
76374;BME280;65197;50.164;8.012;2023-03-14T08:43:39;93315.03;;;6.69;100.00
76374;BME280;65197;50.164;8.012;2023-03-14T08:46:05;93323.75;;;6.64;100.00
76374;BME280;65197;50.164;8.012;2023-03-14T08:48:30;93323.56;;;6.68;100.00
76374;BME280;65197;50.164;8.012;2023-03-14T08:51:06;93323.56;;;6.68;100.00
76374;BME280;65197;50.164;8.012;2023-03-14T08:53:32;93320.72;;;6.72;100.00
76374;BME280;65197;50.164;8.012;2023-03-14T08:55:57;93334.25;;;6.84;100.00
76374;BME280;65197;50.164;8.012;2023-03-14T08:58:23;93335.44;;;6.91;100.00
76374;BME280;65197;50.164;8.012;2023-03-14T09:00:49;93332.75;;;7.05;100.00
76374;BME280;65197;50.164;8.012;2023-03-14T09:03:15;93332.25;;;7.13;100.00
76374;BME280;65197;50.164;8.012;2023-03-14T09:05:40;93348.09;;;7.28;100.00
76374;BME280;65197;50.164;8.012;2023-03-14T09:08:06;93349.94;;;7.26;100.00
76374;BME280;65197;50.164;8.012;2023-03-14T09:10:31;93339.81;;;7.26;100.00
76374;BME280;65197;50.164;8.012;2023-03-14T09:12:56;93351.31;;;7.30;100.00
76374;BME280;65197;50.164;8.012;2023-03-14T09:15:23;93347.66;;;7.34;100.00
76374;BME280;65197;50.164;8.012;2023-03-14T09:17:49;93340.75;;;7.36;100.00
76374;BME280;65197;50.164;8.012;2023-03-14T09:20:14;93352.50;;;7.37;100.00
76374;BME280;65197;50.164;8.012;2023-03-14T09:22:39;93343.22;;;7.25;100.00
76374;BME280;65197;50.164;8.012;2023-03-14T09:25:05;93343.78;;;7.17;100.00
76374;BME280;65197;50.164;8.012;2023-03-14T09:27:31;93346.19;;;7.19;100.00
76374;BME280;65197;50.164;8.012;2023-03-14T09:29:56;93351.88;;;7.22;100.00
76374;BME280;65197;50.164;8.012;2023-03-14T09:32:21;93359.78;;;7.18;100.00
76374;BME280;65197;50.164;8.012;2023-03-14T09:34:47;93349.06;;;7.14;100.00
76374;BME280;65197;50.164;8.012;2023-03-14T09:37:12;93357.91;;;7.08;100.00
76374;BME280;65197;50.164;8.012;2023-03-14T09:39:38;93359.78;;;7.18;100.00
76374;BME280;65197;50.164;8.012;2023-03-14T09:42:07;93359.06;;;7.15;100.00
76374;BME280;65197;50.164;8.012;2023-03-14T09:44:36;93365.34;;;7.23;100.00
76374;BME280;65197;50.164;8.012;2023-03-14T09:47:06;93338.59;;;7.19;100.00
76374;BME280;65197;50.164;8.012;2023-03-14T09:49:34;93366.75;;;7.27;100.00
76374;BME280;65197;50.164;8.012;2023-03-14T09:52:10;93347.31;;;7.14;100.00
76374;BME280;65197;50.164;8.012;2023-03-14T09:54:54;93359.16;;;7.27;100.00
76374;BME280;65197;50.164;8.012;2023-03-14T09:57:24;93359.03;;;7.28;100.00
76374;BME280;65197;50.164;8.012;2023-03-14T09:59:52;93366.31;;;7.33;100.00
76374;BME280;65197;50.164;8.012;2023-03-14T10:02:22;93351.81;;;7.35;100.00
76374;BME280;65197;50.164;8.012;2023-03-14T10:04:50;93346.03;;;7.33;100.00
76374;BME280;65197;50.164;8.012;2023-03-14T10:07:19;93354.38;;;7.35;100.00
76374;BME280;65197;50.164;8.012;2023-03-14T10:09:49;93348.78;;;7.30;100.00
76374;BME280;65197;50.164;8.012;2023-03-14T10:12:16;93348.84;;;7.41;100.00
76374;BME280;65197;50.164;8.012;2023-03-14T10:14:51;93330.19;;;7.42;100.00
76374;BME280;65197;50.164;8.012;2023-03-14T10:17:19;93315.91;;;7.52;100.00
76374;BME280;65197;50.164;8.012;2023-03-14T10:19:58;93328.84;;;7.60;100.00
76374;BME280;65197;50.164;8.012;2023-03-14T10:22:27;93348.28;;;7.73;100.00
76374;BME280;65197;50.164;8.012;2023-03-14T10:24:57;93344.81;;;7.74;100.00
76374;BME280;65197;50.164;8.012;2023-03-14T10:27:31;93358.84;;;7.66;100.00
76374;BME280;65197;50.164;8.012;2023-03-14T10:29:59;93368.34;;;7.76;100.00
76374;BME280;65197;50.164;8.012;2023-03-14T10:32:45;93356.44;;;7.65;100.00
76374;BME280;65197;50.164;8.012;2023-03-14T10:37:51;93368.47;;;7.50;100.00
76374;BME280;65197;50.164;8.012;2023-03-14T10:40:27;93369.25;;;7.39;100.00
76374;BME280;65197;50.164;8.012;2023-03-14T10:42:54;93369.56;;;7.35;100.00
76374;BME280;65197;50.164;8.012;2023-03-14T10:45:36;93379.41;;;7.39;100.00
76374;BME280;65197;50.164;8.012;2023-03-14T10:48:39;93381.94;;;7.39;100.00
76374;BME280;65197;50.164;8.012;2023-03-14T10:51:22;93372.19;;;7.33;100.00
76374;BME280;65197;50.164;8.012;2023-03-14T10:56:22;93380.34;;;7.26;100.00
76374;BME280;65197;50.164;8.012;2023-03-14T10:58:50;93358.50;;;7.12;100.00
76374;BME280;65197;50.164;8.012;2023-03-14T11:15:32;93400.38;;;7.42;100.00
76374;BME280;65197;50.164;8.012;2023-03-14T11:26:48;93421.56;;;7.17;100.00
76374;BME280;65197;50.164;8.012;2023-03-14T11:29:39;93439.41;;;7.02;100.00
76374;BME280;65197;50.164;8.012;2023-03-14T11:34:59;93495.44;;;5.94;100.00
76374;BME280;65197;50.164;8.012;2023-03-14T11:37:34;93525.50;;;5.57;100.00
76374;BME280;65197;50.164;8.012;2023-03-14T11:40:18;93526.06;;;5.34;100.00
76374;BME280;65197;50.164;8.012;2023-03-14T11:42:47;93538.09;;;5.16;100.00
76374;BME280;65197;50.164;8.012;2023-03-14T11:45:17;93559.84;;;5.04;100.00
76374;BME280;65197;50.164;8.012;2023-03-14T11:47:46;93568.13;;;4.92;100.00
76374;BME280;65197;50.164;8.012;2023-03-14T11:50:24;93574.41;;;4.85;100.00
76374;BME280;65197;50.164;8.012;2023-03-14T11:52:56;93569.81;;;4.77;100.00
76374;BME280;65197;50.164;8.012;2023-03-14T11:55:32;93569.56;;;4.82;100.00
76374;BME280;65197;50.164;8.012;2023-03-14T11:58:22;93596.44;;;4.83;100.00
76374;BME280;65197;50.164;8.012;2023-03-14T12:00:51;93592.88;;;4.71;100.00
76374;BME280;65197;50.164;8.012;2023-03-14T12:08:39;93605.03;;;5.80;100.00
76374;BME280;65197;50.164;8.012;2023-03-14T12:13:52;93624.47;;;6.88;100.00
76374;BME280;65197;50.164;8.012;2023-03-14T12:16:31;93619.47;;;6.34;100.00
76374;BME280;65197;50.164;8.012;2023-03-14T12:24:31;93650.66;;;5.50;100.00
76374;BME280;65197;50.164;8.012;2023-03-14T12:27:00;93651.91;;;5.29;100.00
76374;BME280;65197;50.164;8.012;2023-03-14T12:29:27;93668.50;;;5.33;100.00
76374;BME280;65197;50.164;8.012;2023-03-14T12:34:33;93681.09;;;5.04;100.00
76374;BME280;65197;50.164;8.012;2023-03-14T12:37:49;93699.16;;;4.82;100.00
76374;BME280;65197;50.164;8.012;2023-03-14T12:40:03;93706.59;;;4.70;100.00
76374;BME280;65197;50.164;8.012;2023-03-14T12:43:01;93719.63;;;4.62;100.00
76374;BME280;65197;50.164;8.012;2023-03-14T12:45:33;93716.06;;;4.96;100.00
76374;BME280;65197;50.164;8.012;2023-03-14T12:50:55;93710.38;;;5.96;100.00
76374;BME280;65197;50.164;8.012;2023-03-14T12:58:35;93711.66;;;6.44;100.00
76374;BME280;65197;50.164;8.012;2023-03-14T13:01:04;93743.28;;;6.51;100.00
76374;BME280;65197;50.164;8.012;2023-03-14T13:03:50;93752.91;;;5.75;100.00
76374;BME280;65197;50.164;8.012;2023-03-14T13:12:13;93775.13;;;4.94;100.00
76374;BME280;65197;50.164;8.012;2023-03-14T13:14:45;93779.94;;;4.98;100.00
76374;BME280;65197;50.164;8.012;2023-03-14T13:17:16;93792.00;;;5.39;100.00
76374;BME280;65197;50.164;8.012;2023-03-14T13:19:51;93782.56;;;5.27;100.00
76374;BME280;65197;50.164;8.012;2023-03-14T13:22:27;93822.38;;;5.07;100.00
76374;BME280;65197;50.164;8.012;2023-03-14T13:25:05;93805.94;;;4.69;100.00
76374;BME280;65197;50.164;8.012;2023-03-14T13:27:34;93839.69;;;4.68;100.00
76374;BME280;65197;50.164;8.012;2023-03-14T13:30:12;93839.81;;;4.49;100.00
76374;BME280;65197;50.164;8.012;2023-03-14T13:32:42;93866.63;;;4.34;100.00
76374;BME280;65197;50.164;8.012;2023-03-14T13:35:23;93881.38;;;4.08;100.00
76374;BME280;65197;50.164;8.012;2023-03-14T13:38:00;93883.03;;;3.75;100.00
76374;BME280;65197;50.164;8.012;2023-03-14T13:40:33;93889.09;;;3.53;100.00
76374;BME280;65197;50.164;8.012;2023-03-14T13:43:02;93900.72;;;3.39;100.00
76374;BME280;65197;50.164;8.012;2023-03-14T13:45:28;93911.91;;;3.33;100.00
76374;BME280;65197;50.164;8.012;2023-03-14T13:47:53;93916.72;;;3.38;100.00
76374;BME280;65197;50.164;8.012;2023-03-14T13:50:18;93923.59;;;3.34;100.00
76374;BME280;65197;50.164;8.012;2023-03-14T13:52:44;93946.06;;;3.39;100.00
76374;BME280;65197;50.164;8.012;2023-03-14T13:55:16;93943.59;;;3.37;100.00
76374;BME280;65197;50.164;8.012;2023-03-14T13:57:51;93953.63;;;3.39;100.00
76374;BME280;65197;50.164;8.012;2023-03-14T14:00:20;93966.34;;;3.36;100.00
76374;BME280;65197;50.164;8.012;2023-03-14T14:02:47;93965.94;;;3.26;100.00
76374;BME280;65197;50.164;8.012;2023-03-14T14:05:13;93976.63;;;3.31;100.00
76374;BME280;65197;50.164;8.012;2023-03-14T14:07:39;93990.66;;;3.37;100.00
76374;BME280;65197;50.164;8.012;2023-03-14T14:10:09;94019.53;;;3.29;100.00
76374;BME280;65197;50.164;8.012;2023-03-14T14:12:38;94037.97;;;2.51;100.00